Kleinsee, South Africa
Current Conditions -  °F | °C
As of 6:23 AM on Wednesday 26 Nov 2014 (Local Time) from FAUP Reporting Station
Clear Clear  
Wind Chill: 73°   Ceiling: Unl
Heat Index: 73°   Visibility: 6mi
Dew Point: 34°   Wind: 10mph
Humidity: 23%   Direction: 260°W
Pressure: 29.91"   Gusts: NA
Location:  29.68°S, 17.07°E
Report Text: FAUP 260423Z 26009KT CAVOK 23/01 Q1013 NOSIG
Loading
Personal Weather Stations






























Interactive Weather Map New forecast layout! Learn more

10-Day Weather Forecast

Advertisements
Track Severe Weather on mobile